sensor_id;sensor_type;location;lat;lon;timestamp;temperature;humidity
25973;DHT22;13765;51.166;4.466;2022-09-03T00:02:37;20.30;90.40
25973;DHT22;13765;51.166;4.466;2022-09-03T00:05:22;20.30;90.40
25973;DHT22;13765;51.166;4.466;2022-09-03T00:10:42;20.20;90.40
25973;DHT22;13765;51.166;4.466;2022-09-03T00:13:15;20.20;90.40
25973;DHT22;13765;51.166;4.466;2022-09-03T00:15:42;20.20;90.60
25973;DHT22;13765;51.166;4.466;2022-09-03T00:18:13;20.20;90.70
25973;DHT22;13765;51.166;4.466;2022-09-03T00:20:43;20.20;90.70
25973;DHT22;13765;51.166;4.466;2022-09-03T00:23:20;20.10;90.90
25973;DHT22;13765;51.166;4.466;2022-09-03T00:31:36;20.10;90.90
25973;DHT22;13765;51.166;4.466;2022-09-03T00:36:45;20.00;91.10
25973;DHT22;13765;51.166;4.466;2022-09-03T00:39:18;20.00;91.20
25973;DHT22;13765;51.166;4.466;2022-09-03T00:47:11;19.80;91.70
25973;DHT22;13765;51.166;4.466;2022-09-03T00:52:51;19.70;91.90
25973;DHT22;13765;51.166;4.466;2022-09-03T01:00:58;19.70;91.90
25973;DHT22;13765;51.166;4.466;2022-09-03T01:03:36;19.70;92.10
25973;DHT22;13765;51.166;4.466;2022-09-03T01:06:32;19.70;92.10
25973;DHT22;13765;51.166;4.466;2022-09-03T01:09:26;19.80;92.30
25973;DHT22;13765;51.166;4.466;2022-09-03T01:12:28;19.70;92.20
25973;DHT22;13765;51.166;4.466;2022-09-03T01:20:02;19.60;92.50
25973;DHT22;13765;51.166;4.466;2022-09-03T01:33:36;19.30;93.00
25973;DHT22;13765;51.166;4.466;2022-09-03T01:36:22;19.30;93.20
25973;DHT22;13765;51.166;4.466;2022-09-03T01:39:09;19.30;93.20
25973;DHT22;13765;51.166;4.466;2022-09-03T01:42:06;19.30;93.20
25973;DHT22;13765;51.166;4.466;2022-09-03T01:50:50;19.20;93.50
25973;DHT22;13765;51.166;4.466;2022-09-03T02:02:24;19.10;93.80
25973;DHT22;13765;51.166;4.466;2022-09-03T02:08:01;18.90;94.50
25973;DHT22;13765;51.166;4.466;2022-09-03T02:10:48;18.80;94.70
25973;DHT22;13765;51.166;4.466;2022-09-03T02:15:51;18.80;94.90
25973;DHT22;13765;51.166;4.466;2022-09-03T02:18:30;18.80;95.00
25973;DHT22;13765;51.166;4.466;2022-09-03T02:21:02;18.80;95.20
25973;DHT22;13765;51.166;4.466;2022-09-03T02:23:30;18.80;95.20
25973;DHT22;13765;51.166;4.466;2022-09-03T02:26:01;18.80;95.20
25973;DHT22;13765;51.166;4.466;2022-09-03T02:28:28;18.90;95.20
25973;DHT22;13765;51.166;4.466;2022-09-03T02:30:56;18.80;95.30
25973;DHT22;13765;51.166;4.466;2022-09-03T02:33:23;18.80;95.30
25973;DHT22;13765;51.166;4.466;2022-09-03T02:35:50;18.80;95.40
25973;DHT22;13765;51.166;4.466;2022-09-03T02:38:21;18.80;95.50
25973;DHT22;13765;51.166;4.466;2022-09-03T02:40:47;18.80;95.50
25973;DHT22;13765;51.166;4.466;2022-09-03T02:43:44;18.70;95.70
25973;DHT22;13765;51.166;4.466;2022-09-03T02:46:17;18.70;95.80
25973;DHT22;13765;51.166;4.466;2022-09-03T02:48:45;18.70;95.90
25973;DHT22;13765;51.166;4.466;2022-09-03T02:51:16;18.70;96.00
25973;DHT22;13765;51.166;4.466;2022-09-03T02:53:42;18.70;95.90
25973;DHT22;13765;51.166;4.466;2022-09-03T02:56:08;18.80;96.00
25973;DHT22;13765;51.166;4.466;2022-09-03T02:58:33;18.80;96.00
25973;DHT22;13765;51.166;4.466;2022-09-03T03:01:02;18.80;96.00
25973;DHT22;13765;51.166;4.466;2022-09-03T03:03:31;18.80;96.30
25973;DHT22;13765;51.166;4.466;2022-09-03T03:06:02;18.70;96.30
25973;DHT22;13765;51.166;4.466;2022-09-03T03:08:34;18.80;96.30
25973;DHT22;13765;51.166;4.466;2022-09-03T03:11:02;18.70;96.40
25973;DHT22;13765;51.166;4.466;2022-09-03T03:13:29;18.70;96.30
25973;DHT22;13765;51.166;4.466;2022-09-03T03:15:57;18.70;96.50
25973;DHT22;13765;51.166;4.466;2022-09-03T03:18:23;18.80;96.50
25973;DHT22;13765;51.166;4.466;2022-09-03T03:20:50;18.80;96.50
25973;DHT22;13765;51.166;4.466;2022-09-03T03:23:18;18.80;96.60
25973;DHT22;13765;51.166;4.466;2022-09-03T03:25:44;18.80;96.70
25973;DHT22;13765;51.166;4.466;2022-09-03T03:28:09;18.80;96.80
25973;DHT22;13765;51.166;4.466;2022-09-03T03:30:37;18.80;97.00
25973;DHT22;13765;51.166;4.466;2022-09-03T03:33:05;18.80;96.80
25973;DHT22;13765;51.166;4.466;2022-09-03T03:35:35;18.80;96.90
25973;DHT22;13765;51.166;4.466;2022-09-03T03:38:03;18.80;97.00
25973;DHT22;13765;51.166;4.466;2022-09-03T03:40:29;18.80;97.00
25973;DHT22;13765;51.166;4.466;2022-09-03T03:42:57;18.80;97.30
25973;DHT22;13765;51.166;4.466;2022-09-03T03:45:25;18.80;97.40
25973;DHT22;13765;51.166;4.466;2022-09-03T03:47:51;18.80;97.30
25973;DHT22;13765;51.166;4.466;2022-09-03T03:50:17;18.80;97.50
25973;DHT22;13765;51.166;4.466;2022-09-03T03:52:45;18.90;97.50
25973;DHT22;13765;51.166;4.466;2022-09-03T03:55:14;18.90;97.40
25973;DHT22;13765;51.166;4.466;2022-09-03T03:57:41;18.90;97.50
25973;DHT22;13765;51.166;4.466;2022-09-03T04:00:09;18.80;97.60
25973;DHT22;13765;51.166;4.466;2022-09-03T04:02:37;18.90;97.70
25973;DHT22;13765;51.166;4.466;2022-09-03T04:05:03;18.90;97.80
25973;DHT22;13765;51.166;4.466;2022-09-03T04:07:31;18.90;97.70
25973;DHT22;13765;51.166;4.466;2022-09-03T04:09:59;18.90;97.80
25973;DHT22;13765;51.166;4.466;2022-09-03T04:12:26;18.90;98.00
25973;DHT22;13765;51.166;4.466;2022-09-03T04:14:53;18.80;98.10
25973;DHT22;13765;51.166;4.466;2022-09-03T04:17:19;18.80;98.10
25973;DHT22;13765;51.166;4.466;2022-09-03T04:19:47;18.90;98.10
25973;DHT22;13765;51.166;4.466;2022-09-03T04:22:16;18.90;98.10
25973;DHT22;13765;51.166;4.466;2022-09-03T04:24:43;18.80;98.20
25973;DHT22;13765;51.166;4.466;2022-09-03T04:27:13;18.80;98.60
25973;DHT22;13765;51.166;4.466;2022-09-03T04:29:42;18.90;98.10
25973;DHT22;13765;51.166;4.466;2022-09-03T04:32:12;18.90;98.20
25973;DHT22;13765;51.166;4.466;2022-09-03T04:34:56;18.90;98.50
25973;DHT22;13765;51.166;4.466;2022-09-03T04:37:24;18.80;98.50
25973;DHT22;13765;51.166;4.466;2022-09-03T04:39:50;18.80;98.70
25973;DHT22;13765;51.166;4.466;2022-09-03T04:42:17;18.90;98.70
25973;DHT22;13765;51.166;4.466;2022-09-03T04:44:47;18.90;98.70
25973;DHT22;13765;51.166;4.466;2022-09-03T04:47:16;19.00;98.70
25973;DHT22;13765;51.166;4.466;2022-09-03T04:49:41;18.90;98.70
25973;DHT22;13765;51.166;4.466;2022-09-03T04:52:07;18.90;98.80
25973;DHT22;13765;51.166;4.466;2022-09-03T04:54:34;19.00;98.90
25973;DHT22;13765;51.166;4.466;2022-09-03T04:57:00;18.90;99.10
25973;DHT22;13765;51.166;4.466;2022-09-03T04:59:28;18.80;99.30
25973;DHT22;13765;51.166;4.466;2022-09-03T05:01:56;18.80;99.50
25973;DHT22;13765;51.166;4.466;2022-09-03T05:04:22;18.80;99.60
25973;DHT22;13765;51.166;4.466;2022-09-03T05:06:50;18.90;99.70
25973;DHT22;13765;51.166;4.466;2022-09-03T05:09:16;18.90;99.80
25973;DHT22;13765;51.166;4.466;2022-09-03T05:11:46;18.90;99.80
25973;DHT22;13765;51.166;4.466;2022-09-03T05:14:12;19.00;99.90
25973;DHT22;13765;51.166;4.466;2022-09-03T05:16:40;19.00;99.90
25973;DHT22;13765;51.166;4.466;2022-09-03T05:19:09;19.00;99.90
25973;DHT22;13765;51.166;4.466;2022-09-03T05:21:37;19.00;99.90
25973;DHT22;13765;51.166;4.466;2022-09-03T05:24:04;19.00;99.90
25973;DHT22;13765;51.166;4.466;2022-09-03T05:26:32;19.10;99.90
25973;DHT22;13765;51.166;4.466;2022-09-03T05:29:04;19.00;99.90
25973;DHT22;13765;51.166;4.466;2022-09-03T05:31:37;19.10;99.90
25973;DHT22;13765;51.166;4.466;2022-09-03T05:34:07;19.20;99.90
25973;DHT22;13765;51.166;4.466;2022-09-03T05:36:36;19.20;99.90
25973;DHT22;13765;51.166;4.466;2022-09-03T05:39:05;19.20;99.90
25973;DHT22;13765;51.166;4.466;2022-09-03T05:41:36;19.20;99.90
25973;DHT22;13765;51.166;4.466;2022-09-03T05:44:02;19.20;99.90
25973;DHT22;13765;51.166;4.466;2022-09-03T05:46:32;19.30;99.90
25973;DHT22;13765;51.166;4.466;2022-09-03T05:48:59;19.30;99.90
25973;DHT22;13765;51.166;4.466;2022-09-03T05:51:34;19.30;99.90
25973;DHT22;13765;51.166;4.466;2022-09-03T05:54:04;19.30;99.90
25973;DHT22;13765;51.166;4.466;2022-09-03T05:56:33;19.40;99.90
25973;DHT22;13765;51.166;4.466;2022-09-03T05:59:03;19.40;99.90
25973;DHT22;13765;51.166;4.466;2022-09-03T06:01:44;19.40;99.90
25973;DHT22;13765;51.166;4.466;2022-09-03T06:04:12;19.60;99.90
25973;DHT22;13765;51.166;4.466;2022-09-03T06:06:43;19.50;99.90
25973;DHT22;13765;51.166;4.466;2022-09-03T06:09:16;19.50;99.90
25973;DHT22;13765;51.166;4.466;2022-09-03T06:11:43;19.50;99.90
25973;DHT22;13765;51.166;4.466;2022-09-03T06:14:11;19.40;99.90
25973;DHT22;13765;51.166;4.466;2022-09-03T06:16:42;19.30;99.90
25973;DHT22;13765;51.166;4.466;2022-09-03T06:19:11;19.50;99.90
25973;DHT22;13765;51.166;4.466;2022-09-03T06:21:42;19.60;99.90
25973;DHT22;13765;51.166;4.466;2022-09-03T06:24:13;19.80;99.90
25973;DHT22;13765;51.166;4.466;2022-09-03T06:26:42;19.80;99.90
25973;DHT22;13765;51.166;4.466;2022-09-03T06:29:08;19.80;99.90
25973;DHT22;13765;51.166;4.466;2022-09-03T06:31:34;19.70;99.90
25973;DHT22;13765;51.166;4.466;2022-09-03T06:34:05;19.90;99.90
25973;DHT22;13765;51.166;4.466;2022-09-03T06:36:33;19.90;99.90
25973;DHT22;13765;51.166;4.466;2022-09-03T06:39:01;20.00;99.90
25973;DHT22;13765;51.166;4.466;2022-09-03T06:41:32;20.00;99.90
25973;DHT22;13765;51.166;4.466;2022-09-03T06:44:05;20.00;99.90
25973;DHT22;13765;51.166;4.466;2022-09-03T06:46:39;20.00;99.90
25973;DHT22;13765;51.166;4.466;2022-09-03T06:49:10;19.80;99.90
25973;DHT22;13765;51.166;4.466;2022-09-03T06:51:37;19.70;99.90
25973;DHT22;13765;51.166;4.466;2022-09-03T06:54:08;19.70;99.90
25973;DHT22;13765;51.166;4.466;2022-09-03T06:56:39;19.50;99.90
25973;DHT22;13765;51.166;4.466;2022-09-03T06:59:10;19.40;99.90
25973;DHT22;13765;51.166;4.466;2022-09-03T07:01:41;19.50;99.90
25973;DHT22;13765;51.166;4.466;2022-09-03T07:04:12;19.40;99.90
25973;DHT22;13765;51.166;4.466;2022-09-03T07:06:39;19.30;99.90
25973;DHT22;13765;51.166;4.466;2022-09-03T07:09:14;19.30;99.90
25973;DHT22;13765;51.166;4.466;2022-09-03T07:11:45;19.40;99.90
25973;DHT22;13765;51.166;4.466;2022-09-03T07:14:12;19.40;99.90
25973;DHT22;13765;51.166;4.466;2022-09-03T07:16:39;19.40;99.90
25973;DHT22;13765;51.166;4.466;2022-09-03T07:19:06;19.30;99.90
25973;DHT22;13765;51.166;4.466;2022-09-03T07:21:35;19.40;99.90
25973;DHT22;13765;51.166;4.466;2022-09-03T07:24:01;19.50;99.90
25973;DHT22;13765;51.166;4.466;2022-09-03T07:26:30;19.70;99.90
25973;DHT22;13765;51.166;4.466;2022-09-03T07:28:58;19.90;99.90
25973;DHT22;13765;51.166;4.466;2022-09-03T07:31:37;19.90;99.90
25973;DHT22;13765;51.166;4.466;2022-09-03T07:34:05;20.00;99.90
25973;DHT22;13765;51.166;4.466;2022-09-03T07:36:41;20.20;99.90
25973;DHT22;13765;51.166;4.466;2022-09-03T07:39:12;20.30;99.90
25973;DHT22;13765;51.166;4.466;2022-09-03T07:41:42;20.40;99.90
25973;DHT22;13765;51.166;4.466;2022-09-03T07:44:13;20.40;99.90
25973;DHT22;13765;51.166;4.466;2022-09-03T07:46:46;20.50;99.90
25973;DHT22;13765;51.166;4.466;2022-09-03T07:49:12;20.60;99.90
25973;DHT22;13765;51.166;4.466;2022-09-03T07:51:39;20.70;99.90
25973;DHT22;13765;51.166;4.466;2022-09-03T07:54:07;20.90;99.90
25973;DHT22;13765;51.166;4.466;2022-09-03T07:56:37;21.00;99.90
25973;DHT22;13765;51.166;4.466;2022-09-03T07:59:04;21.10;99.90
25973;DHT22;13765;51.166;4.466;2022-09-03T08:01:35;21.30;99.90
25973;DHT22;13765;51.166;4.466;2022-09-03T08:04:02;21.50;99.90
25973;DHT22;13765;51.166;4.466;2022-09-03T08:06:29;21.60;99.90
25973;DHT22;13765;51.166;4.466;2022-09-03T08:08:59;21.80;99.90
25973;DHT22;13765;51.166;4.466;2022-09-03T08:11:27;22.10;99.90
25973;DHT22;13765;51.166;4.466;2022-09-03T08:14:02;22.50;99.90
25973;DHT22;13765;51.166;4.466;2022-09-03T08:16:33;22.80;99.90
25973;DHT22;13765;51.166;4.466;2022-09-03T08:18:59;23.20;99.30
25973;DHT22;13765;51.166;4.466;2022-09-03T08:21:26;23.50;99.00
25973;DHT22;13765;51.166;4.466;2022-09-03T08:23:56;24.20;98.50
25973;DHT22;13765;51.166;4.466;2022-09-03T08:26:34;25.00;96.60
25973;DHT22;13765;51.166;4.466;2022-09-03T08:29:00;25.80;95.80
25973;DHT22;13765;51.166;4.466;2022-09-03T08:31:27;26.30;93.90
25973;DHT22;13765;51.166;4.466;2022-09-03T08:33:55;26.70;93.10
25973;DHT22;13765;51.166;4.466;2022-09-03T08:36:28;27.00;92.20
25973;DHT22;13765;51.166;4.466;2022-09-03T08:39:00;27.30;91.70
25973;DHT22;13765;51.166;4.466;2022-09-03T08:46:46;28.10;90.80
25973;DHT22;13765;51.166;4.466;2022-09-03T08:49:31;27.90;91.10
25973;DHT22;13765;51.166;4.466;2022-09-03T08:52:05;28.10;91.50
25973;DHT22;13765;51.166;4.466;2022-09-03T08:54:35;28.40;91.00
25973;DHT22;13765;51.166;4.466;2022-09-03T08:57:02;28.30;91.00
25973;DHT22;13765;51.166;4.466;2022-09-03T08:59:29;28.60;91.00
25973;DHT22;13765;51.166;4.466;2022-09-03T09:02:03;28.60;91.50
25973;DHT22;13765;51.166;4.466;2022-09-03T09:04:56;28.70;91.20
25973;DHT22;13765;51.166;4.466;2022-09-03T09:07:37;29.20;91.10
25973;DHT22;13765;51.166;4.466;2022-09-03T09:10:18;29.10;90.50
25973;DHT22;13765;51.166;4.466;2022-09-03T09:15:46;29.10;91.30
25973;DHT22;13765;51.166;4.466;2022-09-03T09:21:19;29.00;91.40
25973;DHT22;13765;51.166;4.466;2022-09-03T09:23:49;29.40;91.40
25973;DHT22;13765;51.166;4.466;2022-09-03T09:26:18;29.50;90.80
25973;DHT22;13765;51.166;4.466;2022-09-03T09:28:49;29.60;90.80
25973;DHT22;13765;51.166;4.466;2022-09-03T09:31:18;29.90;90.30
25973;DHT22;13765;51.166;4.466;2022-09-03T09:33:46;29.80;90.10
25973;DHT22;13765;51.166;4.466;2022-09-03T09:36:16;30.00;90.60
25973;DHT22;13765;51.166;4.466;2022-09-03T09:38:46;30.10;90.00
25973;DHT22;13765;51.166;4.466;2022-09-03T09:41:13;30.00;89.80
25973;DHT22;13765;51.166;4.466;2022-09-03T09:43:41;29.60;90.50
25973;DHT22;13765;51.166;4.466;2022-09-03T09:46:25;29.30;90.80
25973;DHT22;13765;51.166;4.466;2022-09-03T09:48:56;29.50;90.60
25973;DHT22;13765;51.166;4.466;2022-09-03T09:51:28;29.80;90.00
25973;DHT22;13765;51.166;4.466;2022-09-03T09:54:16;29.60;90.70
25973;DHT22;13765;51.166;4.466;2022-09-03T09:56:56;29.70;90.20
25973;DHT22;13765;51.166;4.466;2022-09-03T09:59:22;29.90;90.00
25973;DHT22;13765;51.166;4.466;2022-09-03T10:01:50;30.10;90.80
25973;DHT22;13765;51.166;4.466;2022-09-03T10:04:29;30.40;89.20
25973;DHT22;13765;51.166;4.466;2022-09-03T10:12:43;30.70;89.30
25973;DHT22;13765;51.166;4.466;2022-09-03T10:20:50;29.90;90.30
25973;DHT22;13765;51.166;4.466;2022-09-03T10:23:26;29.60;90.70
25973;DHT22;13765;51.166;4.466;2022-09-03T10:26:15;29.70;91.50
25973;DHT22;13765;51.166;4.466;2022-09-03T10:28:45;29.50;91.50
25973;DHT22;13765;51.166;4.466;2022-09-03T10:39:18;30.60;91.00
25973;DHT22;13765;51.166;4.466;2022-09-03T10:45:17;30.80;90.80
25973;DHT22;13765;51.166;4.466;2022-09-03T10:50:55;30.80;90.10
25973;DHT22;13765;51.166;4.466;2022-09-03T11:01:58;29.90;91.30
25973;DHT22;13765;51.166;4.466;2022-09-03T11:04:41;30.00;91.00
25973;DHT22;13765;51.166;4.466;2022-09-03T11:07:12;30.20;90.40
25973;DHT22;13765;51.166;4.466;2022-09-03T11:09:45;30.40;90.80
25973;DHT22;13765;51.166;4.466;2022-09-03T11:12:19;30.50;90.90
25973;DHT22;13765;51.166;4.466;2022-09-03T11:17:35;31.30;90.30
25973;DHT22;13765;51.166;4.466;2022-09-03T11:22:42;32.10;88.80
25973;DHT22;13765;51.166;4.466;2022-09-03T11:25:11;32.20;89.40
25973;DHT22;13765;51.166;4.466;2022-09-03T11:30:23;31.40;88.90
25973;DHT22;13765;51.166;4.466;2022-09-03T11:32:58;30.70;90.10
25973;DHT22;13765;51.166;4.466;2022-09-03T11:38:04;30.10;90.70
25973;DHT22;13765;51.166;4.466;2022-09-03T11:40:34;29.70;91.10
25973;DHT22;13765;51.166;4.466;2022-09-03T11:50:59;30.00;91.40
25973;DHT22;13765;51.166;4.466;2022-09-03T11:53:35;29.80;92.40
25973;DHT22;13765;51.166;4.466;2022-09-03T11:58:40;29.80;92.60
25973;DHT22;13765;51.166;4.466;2022-09-03T12:01:11;29.80;92.50
25973;DHT22;13765;51.166;4.466;2022-09-03T12:04:03;30.00;91.90
25973;DHT22;13765;51.166;4.466;2022-09-03T12:12:27;30.50;91.10
25973;DHT22;13765;51.166;4.466;2022-09-03T12:20:41;29.80;91.90
25973;DHT22;13765;51.166;4.466;2022-09-03T12:23:10;29.40;92.20
25973;DHT22;13765;51.166;4.466;2022-09-03T12:25:42;29.40;92.30
25973;DHT22;13765;51.166;4.466;2022-09-03T12:28:18;29.40;92.30
25973;DHT22;13765;51.166;4.466;2022-09-03T12:30:48;29.40;92.60
25973;DHT22;13765;51.166;4.466;2022-09-03T12:33:21;29.10;92.40
25973;DHT22;13765;51.166;4.466;2022-09-03T12:35:58;28.90;92.90
25973;DHT22;13765;51.166;4.466;2022-09-03T12:38:26;29.00;93.10
25973;DHT22;13765;51.166;4.466;2022-09-03T12:40:52;29.30;93.00
25973;DHT22;13765;51.166;4.466;2022-09-03T12:43:19;29.10;93.40
25973;DHT22;13765;51.166;4.466;2022-09-03T12:45:47;28.90;93.30
25973;DHT22;13765;51.166;4.466;2022-09-03T12:48:17;29.00;93.50
25973;DHT22;13765;51.166;4.466;2022-09-03T12:50:44;29.10;93.70
25973;DHT22;13765;51.166;4.466;2022-09-03T12:53:13;29.40;92.50
25973;DHT22;13765;51.166;4.466;2022-09-03T12:58:33;29.80;92.70
25973;DHT22;13765;51.166;4.466;2022-09-03T13:01:12;29.90;92.70
25973;DHT22;13765;51.166;4.466;2022-09-03T13:06:30;30.80;91.00
25973;DHT22;13765;51.166;4.466;2022-09-03T13:09:02;30.70;90.70
25973;DHT22;13765;51.166;4.466;2022-09-03T13:11:32;30.50;90.70
25973;DHT22;13765;51.166;4.466;2022-09-03T13:14:05;30.50;90.40
25973;DHT22;13765;51.166;4.466;2022-09-03T13:19:36;30.40;91.10
25973;DHT22;13765;51.166;4.466;2022-09-03T13:22:39;30.30;90.80
25973;DHT22;13765;51.166;4.466;2022-09-03T13:25:29;30.30;90.90
25973;DHT22;13765;51.166;4.466;2022-09-03T13:33:46;29.90;91.80
25973;DHT22;13765;51.166;4.466;2022-09-03T13:36:18;29.60;91.80
25973;DHT22;13765;51.166;4.466;2022-09-03T13:38:52;29.60;92.00
25973;DHT22;13765;51.166;4.466;2022-09-03T13:41:45;29.40;92.20
25973;DHT22;13765;51.166;4.466;2022-09-03T13:44:34;29.20;91.80
25973;DHT22;13765;51.166;4.466;2022-09-03T13:52:52;29.10;92.40
25973;DHT22;13765;51.166;4.466;2022-09-03T13:58:18;29.50;91.40
25973;DHT22;13765;51.166;4.466;2022-09-03T14:03:55;29.50;91.30
25973;DHT22;13765;51.166;4.466;2022-09-03T14:06:47;29.60;91.70
25973;DHT22;13765;51.166;4.466;2022-09-03T14:15:25;29.80;91.20
25973;DHT22;13765;51.166;4.466;2022-09-03T14:18:14;29.80;91.80
25973;DHT22;13765;51.166;4.466;2022-09-03T14:20:57;29.70;91.40
25973;DHT22;13765;51.166;4.466;2022-09-03T14:23:53;29.60;91.70
25973;DHT22;13765;51.166;4.466;2022-09-03T14:26:36;29.60;92.00
25973;DHT22;13765;51.166;4.466;2022-09-03T14:45:56;29.40;92.90
25973;DHT22;13765;51.166;4.466;2022-09-03T14:57:44;29.80;92.00
25973;DHT22;13765;51.166;4.466;2022-09-03T15:00:20;29.90;92.00
25973;DHT22;13765;51.166;4.466;2022-09-03T15:03:00;30.10;91.80
25973;DHT22;13765;51.166;4.466;2022-09-03T15:05:46;30.10;91.30
25973;DHT22;13765;51.166;4.466;2022-09-03T15:08:43;30.10;91.30
25973;DHT22;13765;51.166;4.466;2022-09-03T15:11:23;29.90;92.10
25973;DHT22;13765;51.166;4.466;2022-09-03T15:14:09;29.70;91.90
25973;DHT22;13765;51.166;4.466;2022-09-03T15:16:47;29.50;92.30
25973;DHT22;13765;51.166;4.466;2022-09-03T15:22:41;29.20;92.50
25973;DHT22;13765;51.166;4.466;2022-09-03T15:25:46;29.00;92.60
25973;DHT22;13765;51.166;4.466;2022-09-03T15:28:39;29.00;92.80
25973;DHT22;13765;51.166;4.466;2022-09-03T15:31:18;28.90;93.50
25973;DHT22;13765;51.166;4.466;2022-09-03T15:36:27;28.70;93.50
25973;DHT22;13765;51.166;4.466;2022-09-03T15:39:08;28.70;94.00
25973;DHT22;13765;51.166;4.466;2022-09-03T15:41:51;28.70;94.30
25973;DHT22;13765;51.166;4.466;2022-09-03T15:44:22;28.70;94.30
25973;DHT22;13765;51.166;4.466;2022-09-03T15:46:52;28.70;94.00
25973;DHT22;13765;51.166;4.466;2022-09-03T15:49:50;28.70;94.00
25973;DHT22;13765;51.166;4.466;2022-09-03T15:54:55;28.50;93.90
25973;DHT22;13765;51.166;4.466;2022-09-03T16:00:10;28.30;93.90
25973;DHT22;13765;51.166;4.466;2022-09-03T16:02:46;28.30;93.80
25973;DHT22;13765;51.166;4.466;2022-09-03T16:05:49;28.30;94.10
25973;DHT22;13765;51.166;4.466;2022-09-03T16:08:39;28.20;94.00
25973;DHT22;13765;51.166;4.466;2022-09-03T16:11:27;28.20;94.00
25973;DHT22;13765;51.166;4.466;2022-09-03T16:19:43;28.10;94.50
25973;DHT22;13765;51.166;4.466;2022-09-03T16:22:27;28.10;94.20
25973;DHT22;13765;51.166;4.466;2022-09-03T16:27:30;28.10;94.30
25973;DHT22;13765;51.166;4.466;2022-09-03T16:30:06;28.10;94.20
25973;DHT22;13765;51.166;4.466;2022-09-03T16:35:21;28.30;94.60
25973;DHT22;13765;51.166;4.466;2022-09-03T16:38:18;27.80;97.50
25973;DHT22;13765;51.166;4.466;2022-09-03T16:44:04;27.50;99.90
25973;DHT22;13765;51.166;4.466;2022-09-03T17:00:22;26.90;99.90
25973;DHT22;13765;51.166;4.466;2022-09-03T17:09:40;26.50;99.90
25973;DHT22;13765;51.166;4.466;2022-09-03T17:11:58;26.30;99.90
25973;DHT22;13765;51.166;4.466;2022-09-03T17:25:38;25.30;99.90
25973;DHT22;13765;51.166;4.466;2022-09-03T17:36:13;24.70;99.90
25973;DHT22;13765;51.166;4.466;2022-09-03T17:52:50;24.30;99.90
25973;DHT22;13765;51.166;4.466;2022-09-03T17:55:42;24.30;99.90
25973;DHT22;13765;51.166;4.466;2022-09-03T17:58:17;24.30;99.90
25973;DHT22;13765;51.166;4.466;2022-09-03T18:00:56;24.20;99.90
25973;DHT22;13765;51.166;4.466;2022-09-03T18:03:43;24.10;99.90
25973;DHT22;13765;51.166;4.466;2022-09-03T18:09:29;23.70;99.90
25973;DHT22;13765;51.166;4.466;2022-09-03T18:14:48;23.70;99.90
25973;DHT22;13765;51.166;4.466;2022-09-03T18:17:21;23.70;99.90
25973;DHT22;13765;51.166;4.466;2022-09-03T18:20:07;23.70;99.90
25973;DHT22;13765;51.166;4.466;2022-09-03T18:26:19;23.60;99.90
25973;DHT22;13765;51.166;4.466;2022-09-03T18:32:25;23.50;99.90
25973;DHT22;13765;51.166;4.466;2022-09-03T18:35:10;23.40;99.90
25973;DHT22;13765;51.166;4.466;2022-09-03T18:37:56;23.20;99.90
25973;DHT22;13765;51.166;4.466;2022-09-03T18:40:54;23.20;99.90
25973;DHT22;13765;51.166;4.466;2022-09-03T18:55:19;22.90;99.90
25973;DHT22;13765;51.166;4.466;2022-09-03T19:07:02;23.10;99.90
25973;DHT22;13765;51.166;4.466;2022-09-03T19:09:55;23.00;99.90
25973;DHT22;13765;51.166;4.466;2022-09-03T19:22:33;22.30;99.90
25973;DHT22;13765;51.166;4.466;2022-09-03T19:25:17;22.20;99.90
25973;DHT22;13765;51.166;4.466;2022-09-03T19:28:22;22.20;99.90
25973;DHT22;13765;51.166;4.466;2022-09-03T19:31:36;22.20;99.90
25973;DHT22;13765;51.166;4.466;2022-09-03T19:41:20;22.00;99.90
25973;DHT22;13765;51.166;4.466;2022-09-03T19:47:22;21.90;99.90
25973;DHT22;13765;51.166;4.466;2022-09-03T19:50:28;21.90;99.90
25973;DHT22;13765;51.166;4.466;2022-09-03T19:53:17;21.90;99.90
25973;DHT22;13765;51.166;4.466;2022-09-03T19:56:06;21.80;99.90
25973;DHT22;13765;51.166;4.466;2022-09-03T19:58:55;21.90;99.90
25973;DHT22;13765;51.166;4.466;2022-09-03T20:01:41;21.70;99.90
25973;DHT22;13765;51.166;4.466;2022-09-03T20:04:49;21.80;99.90
25973;DHT22;13765;51.166;4.466;2022-09-03T20:07:36;21.70;99.90
25973;DHT22;13765;51.166;4.466;2022-09-03T20:10:21;21.70;99.90
25973;DHT22;13765;51.166;4.466;2022-09-03T20:13:04;21.60;99.90
25973;DHT22;13765;51.166;4.466;2022-09-03T20:18:44;21.60;99.90
25973;DHT22;13765;51.166;4.466;2022-09-03T20:21:34;21.50;99.90
25973;DHT22;13765;51.166;4.466;2022-09-03T20:27:06;21.40;99.90
25973;DHT22;13765;51.166;4.466;2022-09-03T20:32:40;21.20;99.90
25973;DHT22;13765;51.166;4.466;2022-09-03T20:43:42;21.10;99.90
25973;DHT22;13765;51.166;4.466;2022-09-03T20:49:00;21.00;99.90
25973;DHT22;13765;51.166;4.466;2022-09-03T20:51:35;21.00;99.90
25973;DHT22;13765;51.166;4.466;2022-09-03T20:54:16;21.00;99.90
25973;DHT22;13765;51.166;4.466;2022-09-03T20:57:15;21.00;99.90
25973;DHT22;13765;51.166;4.466;2022-09-03T21:00:04;21.00;99.90
25973;DHT22;13765;51.166;4.466;2022-09-03T21:16:04;20.90;99.90
25973;DHT22;13765;51.166;4.466;2022-09-03T21:18:49;20.90;99.90
25973;DHT22;13765;51.166;4.466;2022-09-03T21:26:59;20.90;99.90
25973;DHT22;13765;51.166;4.466;2022-09-03T21:29:37;20.90;99.90
25973;DHT22;13765;51.166;4.466;2022-09-03T21:32:23;20.90;99.90
25973;DHT22;13765;51.166;4.466;2022-09-03T21:35:05;21.00;99.90
25973;DHT22;13765;51.166;4.466;2022-09-03T21:37:37;21.00;99.90
25973;DHT22;13765;51.166;4.466;2022-09-03T21:40:08;20.90;99.90
25973;DHT22;13765;51.166;4.466;2022-09-03T21:42:45;21.00;99.90
25973;DHT22;13765;51.166;4.466;2022-09-03T21:47:50;21.00;99.90
25973;DHT22;13765;51.166;4.466;2022-09-03T21:50:27;21.00;99.90
25973;DHT22;13765;51.166;4.466;2022-09-03T21:53:08;21.00;99.90
25973;DHT22;13765;51.166;4.466;2022-09-03T21:56:01;20.90;99.90
25973;DHT22;13765;51.166;4.466;2022-09-03T22:01:11;21.00;99.90
25973;DHT22;13765;51.166;4.466;2022-09-03T22:03:40;20.90;99.90
25973;DHT22;13765;51.166;4.466;2022-09-03T22:06:16;20.80;99.90
25973;DHT22;13765;51.166;4.466;2022-09-03T22:08:53;20.70;99.90
25973;DHT22;13765;51.166;4.466;2022-09-03T22:11:34;20.70;99.90
25973;DHT22;13765;51.166;4.466;2022-09-03T22:14:16;20.60;99.90
25973;DHT22;13765;51.166;4.466;2022-09-03T22:17:05;20.60;99.90
25973;DHT22;13765;51.166;4.466;2022-09-03T22:19:35;20.50;99.90
25973;DHT22;13765;51.166;4.466;2022-09-03T22:22:11;20.50;99.90
25973;DHT22;13765;51.166;4.466;2022-09-03T22:47:10;20.50;99.90
25973;DHT22;13765;51.166;4.466;2022-09-03T22:50:23;20.50;99.90
25973;DHT22;13765;51.166;4.466;2022-09-03T22:55:29;20.30;99.90
25973;DHT22;13765;51.166;4.466;2022-09-03T22:58:13;20.30;99.90